Terminal Aerodrome Forecast
Issued by NWS Wilmington, OH

Current Version | Previous Version | Text Only | Print | Product List | Glossary Off
Versions: 1 2 3 4 5 6 7 8 9 10 11 12 13 14 15 16 17 18 19 20 21 22 23

000
FTUS41 KILN 211739
TAFDAY
TAF
KDAY 211739Z 2118/2218 23012KT P6SM SCT050 BKN200
     FM220300 19005KT P6SM SCT050 SCT100
     FM220900 20007KT P6SM VCSH BKN040 OVC100
      TEMPO 2210/2214 5SM -SHRA BR BKN020 OVC040
     FM221500 23014G22KT P6SM BKN020 OVC050=

USA.gov is the U.S. government's official web portal to all federal, state and local government web resources and services.